Time;durP1;ratioP1;P1;durP2;ratioP2;P2;SDS_P1;SDS_P2;PMS_P1;PMS_P2;Temp;Humidity;BMP_temperature;BMP_pressure;BME280_temperature;BME280_humidity;BME280_pressure;Samples;Min_cycle;Max_cycle;Signal;HPM_P1;HPM_P2
2022/03/17 00:02:07;;;;;;;21.53;17.17;;;;;;;;;;4994704;28;20233;-72
2022/03/17 00:04:32;;;;;;;23.00;18.13;;;;;;;;;;4993490;28;20279;-72
2022/03/17 00:06:58;;;;;;;19.97;17.17;;;;;;;;;;4993763;28;20237;-72
2022/03/17 00:09:26;;;;;;;19.47;16.90;;;;;;;;;;4982276;28;20229;-72
2022/03/17 00:11:52;;;;;;;20.77;17.17;;;;;;;;;;5010926;28;20228;-72
2022/03/17 00:14:19;;;;;;;22.00;17.00;;;;;;;;;;5010543;28;20233;-72
2022/03/17 00:16:44;;;;;;;19.30;16.43;;;;;;;;;;5009857;28;20247;-72
2022/03/17 00:19:10;;;;;;;23.20;17.93;;;;;;;;;;5002608;28;20244;-73
2022/03/17 00:21:36;;;;;;;21.70;18.50;;;;;;;;;;5017967;28;20307;-71
2022/03/17 00:24:07;;;;;;;22.07;19.03;;;;;;;;;;5015344;28;20237;-72
2022/03/17 00:26:35;;;;;;;21.17;17.80;;;;;;;;;;5032495;28;20224;-72
2022/03/17 00:29:02;;;;;;;22.13;18.23;;;;;;;;;;4993868;28;20228;-72
2022/03/17 00:31:30;;;;;;;24.40;18.47;;;;;;;;;;5021335;28;20874;-72
2022/03/17 00:33:58;;;;;;;21.57;18.67;;;;;;;;;;4992584;28;20308;-72
2022/03/17 00:36:23;;;;;;;20.30;18.10;;;;;;;;;;4995195;28;20239;-72
2022/03/17 00:38:51;;;;;;;22.20;18.57;;;;;;;;;;5008682;28;20236;-72
2022/03/17 00:41:16;;;;;;;21.63;18.17;;;;;;;;;;5009704;28;20208;-72
2022/03/17 00:43:42;;;;;;;21.30;18.63;;;;;;;;;;4992634;28;20256;-71
2022/03/17 00:46:07;;;;;;;20.33;18.00;;;;;;;;;;4992926;28;20304;-71
2022/03/17 00:48:35;;;;;;;20.60;18.40;;;;;;;;;;5010147;28;20232;-72
2022/03/17 00:51:03;;;;;;;20.60;17.73;;;;;;;;;;5001970;28;20770;-72
2022/03/17 00:53:33;;;;;;;20.83;18.13;;;;;;;;;;5011341;28;20252;-72
2022/03/17 00:55:59;;;;;;;21.53;18.90;;;;;;;;;;5011364;28;20224;-72
2022/03/17 00:58:29;;;;;;;22.37;19.13;;;;;;;;;;5012765;28;20308;-72
2022/03/17 01:00:56;;;;;;;22.17;18.33;;;;;;;;;;5013688;28;20227;-72
2022/03/17 01:03:22;;;;;;;23.10;19.37;;;;;;;;;;4992635;28;21748;-72
2022/03/17 01:05:48;;;;;;;22.87;20.47;;;;;;;;;;4996010;28;20217;-72
2022/03/17 01:08:13;;;;;;;21.23;18.93;;;;;;;;;;5011406;28;20216;-71
2022/03/17 01:10:39;;;;;;;23.17;19.53;;;;;;;;;;5013352;28;20319;-71
2022/03/17 01:13:07;;;;;;;24.97;20.63;;;;;;;;;;4999944;28;20248;-72
2022/03/17 01:15:37;;;;;;;22.90;19.87;;;;;;;;;;5013723;28;20323;-72
2022/03/17 01:18:07;;;;;;;24.70;20.07;;;;;;;;;;5015883;28;20240;-73
2022/03/17 01:20:37;;;;;;;22.87;19.90;;;;;;;;;;5017800;28;20727;-72
2022/03/17 01:23:08;;;;;;;23.43;20.20;;;;;;;;;;5012748;28;20225;-72
2022/03/17 01:25:36;;;;;;;24.27;20.20;;;;;;;;;;5013426;28;20235;-72
2022/03/17 01:28:02;;;;;;;22.93;20.43;;;;;;;;;;4988977;28;20232;-72
2022/03/17 01:30:29;;;;;;;22.30;19.63;;;;;;;;;;5007485;28;20327;-73
2022/03/17 01:32:57;;;;;;;24.17;21.07;;;;;;;;;;4995519;28;20236;-72
2022/03/17 01:35:23;;;;;;;24.97;20.77;;;;;;;;;;5012192;28;20232;-71
2022/03/17 01:37:48;;;;;;;24.77;21.97;;;;;;;;;;5016578;28;20802;-72
2022/03/17 01:40:16;;;;;;;23.17;20.67;;;;;;;;;;5003638;28;20278;-71
2022/03/17 01:42:44;;;;;;;23.33;20.37;;;;;;;;;;5012345;28;20225;-72
2022/03/17 01:45:13;;;;;;;24.93;21.60;;;;;;;;;;4987429;28;20229;-72
2022/03/17 01:47:38;;;;;;;24.17;20.20;;;;;;;;;;4980502;28;20221;-72
2022/03/17 01:50:09;;;;;;;23.97;21.37;;;;;;;;;;5000276;28;20239;-72
2022/03/17 01:52:35;;;;;;;23.97;20.47;;;;;;;;;;4993524;28;20247;-71
2022/03/17 01:55:01;;;;;;;25.33;21.00;;;;;;;;;;5004225;28;20244;-72
2022/03/17 01:57:27;;;;;;;23.83;21.30;;;;;;;;;;5030604;28;20231;-71
2022/03/17 01:59:59;;;;;;;28.00;22.83;;;;;;;;;;5012928;28;20733;-71
2022/03/17 02:02:25;;;;;;;25.33;21.03;;;;;;;;;;5028893;28;20320;-73
2022/03/17 02:04:51;;;;;;;26.50;21.57;;;;;;;;;;4997226;28;20232;-72
2022/03/17 02:07:16;;;;;;;25.33;21.73;;;;;;;;;;5013026;28;20319;-71
2022/03/17 02:09:43;;;;;;;25.17;22.47;;;;;;;;;;4982718;28;20359;-72
2022/03/17 02:15:00;;;;;;;26.53;21.63;;;;;;;;;;4998516;28;20225;-72
2022/03/17 02:17:27;;;;;;;23.37;20.83;;;;;;;;;;5003744;28;20323;-72
2022/03/17 02:19:56;;;;;;;27.80;21.80;;;;;;;;;;4995545;28;20248;-72
2022/03/17 02:22:24;;;;;;;26.63;23.03;;;;;;;;;;5010418;28;21783;-72
2022/03/17 02:27:47;;;;;;;26.97;22.03;;;;;;;;;;5008382;28;20225;-72
2022/03/17 02:30:19;;;;;;;26.00;22.73;;;;;;;;;;4994965;28;20235;-72
2022/03/17 02:32:47;;;;;;;27.10;23.33;;;;;;;;;;5014412;28;20235;-72
2022/03/17 02:35:18;;;;;;;25.80;23.00;;;;;;;;;;5018217;28;20228;-72
2022/03/17 02:37:44;;;;;;;25.33;22.40;;;;;;;;;;4973763;28;20256;-73
2022/03/17 02:40:12;;;;;;;26.90;23.50;;;;;;;;;;5009903;28;20295;-72
2022/03/17 02:42:40;;;;;;;25.93;23.17;;;;;;;;;;5026691;28;20231;-72
2022/03/17 02:45:07;;;;;;;27.47;24.03;;;;;;;;;;4988746;28;20224;-72
2022/03/17 02:47:32;;;;;;;28.67;25.03;;;;;;;;;;4986307;28;20228;-72
2022/03/17 02:49:58;;;;;;;27.83;24.60;;;;;;;;;;5010976;28;20232;-72
2022/03/17 02:52:26;;;;;;;27.80;24.07;;;;;;;;;;4999451;28;20220;-72
2022/03/17 02:54:58;;;;;;;27.77;24.53;;;;;;;;;;5013041;28;20282;-73
2022/03/17 02:57:23;;;;;;;27.83;24.43;;;;;;;;;;5025779;28;20310;-73
2022/03/17 02:59:48;;;;;;;28.33;24.10;;;;;;;;;;4986809;28;20323;-73
2022/03/17 03:02:15;;;;;;;29.47;25.20;;;;;;;;;;4995638;28;20228;-72
2022/03/17 03:04:43;;;;;;;31.20;25.27;;;;;;;;;;4995834;28;20367;-73
2022/03/17 03:07:09;;;;;;;29.97;25.63;;;;;;;;;;5023692;28;20220;-72
2022/03/17 03:09:34;;;;;;;29.90;26.10;;;;;;;;;;5010419;28;20240;-72
2022/03/17 03:12:00;;;;;;;29.90;26.20;;;;;;;;;;4985441;28;20228;-72
2022/03/17 03:14:26;;;;;;;28.60;25.07;;;;;;;;;;4996388;28;20232;-72
2022/03/17 03:16:54;;;;;;;31.03;25.87;;;;;;;;;;5002366;28;20294;-72
2022/03/17 03:19:21;;;;;;;31.23;26.53;;;;;;;;;;5015628;28;20212;-73
2022/03/17 03:21:49;;;;;;;29.33;25.90;;;;;;;;;;5030597;28;20232;-73
2022/03/17 03:24:17;;;;;;;30.00;26.63;;;;;;;;;;4998687;28;20217;-72
2022/03/17 03:26:47;;;;;;;30.43;26.43;;;;;;;;;;5016827;28;20217;-73
2022/03/17 03:31:46;;;;;;;30.83;26.30;;;;;;;;;;5018114;28;20229;-72
2022/03/17 03:34:12;;;;;;;32.13;27.47;;;;;;;;;;4994371;28;20212;-72
2022/03/17 03:39:23;;;;;;;31.50;27.00;;;;;;;;;;4997436;28;20694;-72
2022/03/17 03:41:51;;;;;;;32.07;26.83;;;;;;;;;;5019376;28;20225;-72
2022/03/17 03:44:22;;;;;;;32.13;27.27;;;;;;;;;;4997425;28;20212;-72
2022/03/17 03:46:49;;;;;;;31.77;27.73;;;;;;;;;;5025759;28;20579;-72
2022/03/17 03:49:17;;;;;;;31.20;27.30;;;;;;;;;;4986632;28;20705;-72
2022/03/17 03:51:45;;;;;;;31.37;27.43;;;;;;;;;;5010256;28;20227;-72
2022/03/17 03:54:13;;;;;;;32.27;27.07;;;;;;;;;;4987540;28;20221;-72
2022/03/17 03:56:59;;;;;;;31.53;26.87;;;;;;;;;;5009876;28;20228;-72
2022/03/17 03:59:28;;;;;;;33.90;27.40;;;;;;;;;;5004812;28;20388;-73
2022/03/17 04:02:05;;;;;;;31.63;27.50;;;;;;;;;;4993015;28;20651;-73
2022/03/17 04:04:31;;;;;;;33.67;28.07;;;;;;;;;;5009426;28;20240;-72
2022/03/17 04:06:58;;;;;;;30.13;26.93;;;;;;;;;;5008947;28;20251;-72
2022/03/17 04:09:33;;;;;;;31.80;28.10;;;;;;;;;;4996422;28;20286;-72
2022/03/17 04:11:59;;;;;;;33.63;28.10;;;;;;;;;;4992936;28;20220;-72
2022/03/17 04:14:24;;;;;;;33.07;27.87;;;;;;;;;;5025248;28;20662;-72
2022/03/17 04:16:50;;;;;;;31.10;27.70;;;;;;;;;;5009570;28;20632;-72
2022/03/17 04:19:15;;;;;;;30.70;27.33;;;;;;;;;;5011931;28;20228;-72
2022/03/17 04:21:41;;;;;;;33.37;27.70;;;;;;;;;;5017176;28;20595;-71
2022/03/17 04:24:07;;;;;;;33.60;28.13;;;;;;;;;;4985434;28;20232;-72
2022/03/17 04:26:35;;;;;;;32.47;28.27;;;;;;;;;;4991137;28;20764;-72
2022/03/17 04:29:00;;;;;;;35.73;29.77;;;;;;;;;;4993260;28;20228;-73
2022/03/17 04:31:26;;;;;;;32.83;28.43;;;;;;;;;;4992744;28;20224;-73
2022/03/17 04:33:51;;;;;;;36.17;32.00;;;;;;;;;;5010400;28;20213;-73
2022/03/17 04:36:17;;;;;;;32.63;28.57;;;;;;;;;;4977593;28;20241;-73
2022/03/17 04:38:42;;;;;;;35.83;31.73;;;;;;;;;;4992549;28;20233;-72
2022/03/17 04:41:10;;;;;;;35.83;30.23;;;;;;;;;;5009222;28;20260;-72
2022/03/17 04:43:37;;;;;;;34.77;30.63;;;;;;;;;;5010797;28;20228;-72
2022/03/17 04:46:06;;;;;;;34.87;30.13;;;;;;;;;;4983563;28;20220;-73
2022/03/17 04:48:34;;;;;;;34.60;29.43;;;;;;;;;;4992750;28;20284;-72
2022/03/17 04:51:00;;;;;;;34.73;30.13;;;;;;;;;;5004589;28;20232;-73
2022/03/17 04:53:32;;;;;;;32.83;29.23;;;;;;;;;;5008037;28;20220;-73
2022/03/17 04:56:20;;;;;;;33.03;28.40;;;;;;;;;;5009038;28;20220;-73
2022/03/17 04:58:45;;;;;;;34.93;29.23;;;;;;;;;;5002264;28;20260;-74
2022/03/17 05:01:14;;;;;;;33.57;29.07;;;;;;;;;;4980032;28;20212;-74
2022/03/17 05:03:39;;;;;;;37.23;30.77;;;;;;;;;;4993160;28;20225;-74
2022/03/17 05:06:07;;;;;;;34.53;30.03;;;;;;;;;;4989108;28;20248;-73
2022/03/17 05:08:36;;;;;;;37.40;31.20;;;;;;;;;;5012804;28;20679;-73
2022/03/17 05:11:02;;;;;;;35.03;30.10;;;;;;;;;;4995481;28;20300;-73
2022/03/17 05:13:28;;;;;;;34.30;30.50;;;;;;;;;;5008336;28;20216;-73
2022/03/17 05:15:54;;;;;;;37.70;31.23;;;;;;;;;;5011683;28;20220;-72
2022/03/17 05:18:22;;;;;;;36.10;29.83;;;;;;;;;;5005892;28;20295;-73
2022/03/17 05:20:48;;;;;;;35.40;30.57;;;;;;;;;;4982551;28;20223;-74
2022/03/17 05:23:17;;;;;;;35.90;30.90;;;;;;;;;;5004690;28;20328;-74
2022/03/17 05:25:43;;;;;;;34.77;30.83;;;;;;;;;;4980099;28;20602;-73
2022/03/17 05:28:11;;;;;;;36.07;30.50;;;;;;;;;;4977612;28;20222;-73
2022/03/17 05:30:38;;;;;;;34.40;29.57;;;;;;;;;;5025273;28;20224;-73
2022/03/17 05:33:06;;;;;;;35.00;29.77;;;;;;;;;;5007941;28;20675;-72
2022/03/17 05:35:31;;;;;;;37.20;29.63;;;;;;;;;;5008761;28;20229;-74
2022/03/17 05:37:57;;;;;;;37.73;31.47;;;;;;;;;;5011920;28;20360;-74
2022/03/17 05:40:23;;;;;;;35.50;30.13;;;;;;;;;;4993520;28;20247;-73
2022/03/17 05:42:55;;;;;;;34.60;29.93;;;;;;;;;;4996981;28;20303;-74
2022/03/17 05:45:21;;;;;;;37.00;32.30;;;;;;;;;;4980845;28;20579;-74
2022/03/17 05:47:53;;;;;;;35.80;31.57;;;;;;;;;;5012477;28;20941;-75
2022/03/17 05:50:24;;;;;;;36.10;31.77;;;;;;;;;;4997242;28;20777;-73
2022/03/17 05:52:50;;;;;;;37.13;30.93;;;;;;;;;;4980434;28;20232;-73
2022/03/17 05:55:17;;;;;;;36.77;31.67;;;;;;;;;;4997303;28;20268;-74
2022/03/17 05:57:47;;;;;;;36.70;31.77;;;;;;;;;;5012502;28;20740;-74
2022/03/17 06:00:20;;;;;;;35.27;30.47;;;;;;;;;;4996988;28;20217;-73
2022/03/17 06:02:46;;;;;;;34.90;30.13;;;;;;;;;;5006374;28;20316;-73
2022/03/17 06:05:19;;;;;;;34.23;30.53;;;;;;;;;;5005471;28;20240;-74
2022/03/17 06:07:51;;;;;;;37.30;31.00;;;;;;;;;;4996491;28;20239;-73
2022/03/17 06:10:24;;;;;;;36.13;31.10;;;;;;;;;;5020810;28;20228;-73
2022/03/17 06:12:52;;;;;;;35.80;31.60;;;;;;;;;;4991849;28;20283;-74
2022/03/17 06:15:20;;;;;;;36.60;31.80;;;;;;;;;;5012025;28;20229;-74
2022/03/17 06:17:49;;;;;;;35.57;31.77;;;;;;;;;;4990481;28;20833;-73
2022/03/17 06:20:22;;;;;;;35.60;30.67;;;;;;;;;;5010567;28;20233;-74
2022/03/17 06:22:56;;;;;;;34.83;30.87;;;;;;;;;;4985165;28;20232;-74
2022/03/17 06:25:40;;;;;;;35.20;31.10;;;;;;;;;;5008186;28;20240;-72
2022/03/17 06:28:13;;;;;;;34.70;30.43;;;;;;;;;;5002549;28;20224;-73
2022/03/17 06:30:41;;;;;;;35.07;31.30;;;;;;;;;;4998652;28;20228;-73
2022/03/17 06:33:07;;;;;;;35.30;31.10;;;;;;;;;;5017319;28;20225;-73
2022/03/17 06:35:33;;;;;;;35.43;31.23;;;;;;;;;;5014985;28;20221;-72
2022/03/17 06:38:07;;;;;;;36.30;31.33;;;;;;;;;;5000533;28;20324;-74
2022/03/17 06:40:33;;;;;;;36.73;30.93;;;;;;;;;;4996368;28;20225;-72
2022/03/17 06:42:59;;;;;;;34.93;30.90;;;;;;;;;;5005740;28;20741;-73
2022/03/17 06:45:27;;;;;;;36.47;31.07;;;;;;;;;;5011503;28;20299;-73
2022/03/17 06:47:57;;;;;;;34.33;30.50;;;;;;;;;;5022470;28;20229;-74
2022/03/17 06:50:23;;;;;;;34.43;30.33;;;;;;;;;;4992107;28;20294;-73
2022/03/17 06:52:54;;;;;;;35.07;30.83;;;;;;;;;;4997349;28;20247;-74
2022/03/17 06:55:20;;;;;;;36.63;31.63;;;;;;;;;;4990080;28;20209;-69
2022/03/17 06:57:48;;;;;;;34.83;30.33;;;;;;;;;;5011714;28;20237;-73
2022/03/17 07:00:15;;;;;;;34.53;30.87;;;;;;;;;;4989711;28;20231;-73
2022/03/17 07:02:40;;;;;;;35.73;30.87;;;;;;;;;;4998031;28;20220;-74
2022/03/17 07:05:07;;;;;;;36.73;31.30;;;;;;;;;;5011402;28;20309;-73
2022/03/17 07:07:35;;;;;;;34.50;30.50;;;;;;;;;;4995199;28;20216;-72
2022/03/17 07:10:15;;;;;;;35.40;31.43;;;;;;;;;;4988763;28;20712;-74
2022/03/17 07:12:44;;;;;;;36.07;30.93;;;;;;;;;;4973714;28;20220;-74
2022/03/17 07:15:13;;;;;;;34.57;30.87;;;;;;;;;;5012609;28;20646;-73
2022/03/17 07:17:41;;;;;;;34.60;30.87;;;;;;;;;;5012789;28;20299;-74
2022/03/17 07:20:09;;;;;;;34.87;31.27;;;;;;;;;;4995707;28;20799;-73
2022/03/17 07:22:34;;;;;;;34.23;30.47;;;;;;;;;;5013592;28;20229;-73
2022/03/17 07:25:00;;;;;;;33.87;29.70;;;;;;;;;;5011415;28;20225;-73
2022/03/17 07:27:25;;;;;;;35.80;31.20;;;;;;;;;;5016951;28;20672;-73
2022/03/17 07:29:52;;;;;;;35.07;31.07;;;;;;;;;;5011069;28;20231;-74
2022/03/17 07:32:24;;;;;;;34.47;30.70;;;;;;;;;;4980232;28;20220;-73
2022/03/17 07:34:50;;;;;;;33.93;30.10;;;;;;;;;;5018069;28;20304;-72
2022/03/17 07:37:16;;;;;;;35.47;30.67;;;;;;;;;;5008205;28;20749;-73
2022/03/17 07:39:44;;;;;;;33.77;30.17;;;;;;;;;;4997872;28;20230;-74
2022/03/17 07:42:10;;;;;;;33.10;29.57;;;;;;;;;;5022168;28;20220;-73
2022/03/17 07:45:00;;;;;;;31.77;28.37;;;;;;;;;;4970327;28;20236;-73
2022/03/17 07:47:59;;;;;;;31.67;28.43;;;;;;;;;;5013422;28;20302;-74
2022/03/17 07:51:01;;;;;;;32.70;29.20;;;;;;;;;;4999849;28;20576;-74
2022/03/17 07:53:27;;;;;;;32.53;28.83;;;;;;;;;;5019140;28;20514;-73
2022/03/17 07:55:57;;;;;;;31.57;27.70;;;;;;;;;;5041407;28;20288;-75
2022/03/17 07:58:27;;;;;;;32.60;29.10;;;;;;;;;;5027328;28;20236;-74
2022/03/17 08:00:54;;;;;;;32.67;29.27;;;;;;;;;;5008819;28;20319;-74
2022/03/17 08:03:20;;;;;;;31.70;28.33;;;;;;;;;;5041534;28;20244;-73
2022/03/17 08:05:48;;;;;;;33.63;28.83;;;;;;;;;;5023148;28;20229;-73
2022/03/17 08:08:17;;;;;;;32.77;29.30;;;;;;;;;;5017047;28;20248;-73
2022/03/17 08:10:43;;;;;;;30.87;27.67;;;;;;;;;;5012199;28;20225;-73
2022/03/17 08:13:14;;;;;;;31.33;28.13;;;;;;;;;;5009598;28;20240;-74
2022/03/17 08:15:40;;;;;;;30.57;27.37;;;;;;;;;;5008055;28;20232;-73
2022/03/17 08:18:06;;;;;;;32.70;29.30;;;;;;;;;;5010021;28;20714;-72
2022/03/17 08:20:32;;;;;;;31.47;28.23;;;;;;;;;;5011453;28;20243;-72
2022/03/17 08:23:00;;;;;;;32.37;28.87;;;;;;;;;;4993170;28;20232;-73
2022/03/17 08:25:25;;;;;;;31.10;27.93;;;;;;;;;;4988936;28;20231;-73
2022/03/17 08:27:55;;;;;;;30.13;26.90;;;;;;;;;;5026623;28;20221;-73
2022/03/17 08:30:21;;;;;;;32.03;28.47;;;;;;;;;;5004528;28;20228;-73
2022/03/17 08:32:46;;;;;;;31.10;27.87;;;;;;;;;;4993557;28;20219;-73
2022/03/17 08:35:14;;;;;;;31.90;28.60;;;;;;;;;;5010316;28;20231;-75
2022/03/17 08:37:43;;;;;;;32.77;29.27;;;;;;;;;;5010592;28;20233;-74
2022/03/17 08:40:11;;;;;;;31.67;28.47;;;;;;;;;;4994881;28;20259;-73
2022/03/17 08:42:40;;;;;;;31.27;28.07;;;;;;;;;;5010372;28;20225;-74
2022/03/17 08:50:43;;;;;;;32.30;28.90;;;;;;;;;;5009828;28;20224;-74
2022/03/17 08:53:08;;;;;;;35.33;31.23;;;;;;;;;;4992823;28;20306;-72
2022/03/17 08:55:37;;;;;;;34.20;30.30;;;;;;;;;;5008806;28;20316;-72
2022/03/17 08:58:05;;;;;;;32.50;29.20;;;;;;;;;;5009701;28;20259;-74
2022/03/17 09:00:34;;;;;;;35.53;29.90;;;;;;;;;;5018888;28;20234;-74
2022/03/17 09:03:03;;;;;;;34.10;30.40;;;;;;;;;;5010382;28;20231;-75
2022/03/17 09:05:33;;;;;;;34.60;30.90;;;;;;;;;;5026123;28;20302;-72
2022/03/17 09:08:04;;;;;;;34.97;31.30;;;;;;;;;;5009448;28;20307;-74
2022/03/17 09:10:33;;;;;;;34.03;30.33;;;;;;;;;;4989114;28;20228;-74
2022/03/17 09:13:07;;;;;;;34.30;30.70;;;;;;;;;;5008752;28;20286;-74
2022/03/17 09:15:40;;;;;;;33.23;29.80;;;;;;;;;;5008997;28;20223;-75
2022/03/17 09:18:06;;;;;;;34.97;30.60;;;;;;;;;;4979480;28;20228;-73
2022/03/17 09:20:34;;;;;;;34.70;31.00;;;;;;;;;;4991757;28;20275;-73
2022/03/17 09:23:02;;;;;;;34.37;30.17;;;;;;;;;;5012792;28;20220;-73
2022/03/17 09:25:28;;;;;;;33.50;30.00;;;;;;;;;;4995766;28;20247;-73
2022/03/17 09:27:54;;;;;;;33.37;29.77;;;;;;;;;;5013328;28;20244;-74
2022/03/17 09:30:22;;;;;;;33.10;29.40;;;;;;;;;;5013421;28;20632;-73
2022/03/17 09:32:48;;;;;;;34.17;30.20;;;;;;;;;;4993020;28;20226;-74
2022/03/17 09:35:14;;;;;;;34.20;30.67;;;;;;;;;;4997482;28;20605;-74
2022/03/17 09:37:41;;;;;;;34.40;30.63;;;;;;;;;;5006451;28;20236;-74
2022/03/17 09:40:10;;;;;;;34.27;30.63;;;;;;;;;;4996737;28;20227;-74
2022/03/17 09:42:35;;;;;;;35.97;32.17;;;;;;;;;;4996549;28;20224;-75
2022/03/17 09:45:01;;;;;;;35.83;32.03;;;;;;;;;;5016032;28;20212;-75
2022/03/17 09:47:31;;;;;;;38.20;34.10;;;;;;;;;;5000175;28;20729;-74
2022/03/17 09:49:59;;;;;;;37.77;33.77;;;;;;;;;;4997663;28;20240;-74
2022/03/17 09:52:26;;;;;;;36.67;32.50;;;;;;;;;;4994841;28;20272;-74
2022/03/17 09:54:54;;;;;;;39.20;35.03;;;;;;;;;;5013129;28;20232;-74
2022/03/17 09:57:20;;;;;;;38.77;34.70;;;;;;;;;;5016827;28;20229;-75
2022/03/17 09:59:58;;;;;;;40.03;35.83;;;;;;;;;;4997344;28;20275;-75
2022/03/17 10:02:24;;;;;;;41.10;36.70;;;;;;;;;;4996414;28;20221;-75
2022/03/17 10:04:49;;;;;;;42.50;37.83;;;;;;;;;;4999473;28;20327;-75
2022/03/17 10:07:18;;;;;;;42.70;38.00;;;;;;;;;;5019122;28;20307;-74
2022/03/17 10:09:45;;;;;;;42.67;38.03;;;;;;;;;;5010172;28;20245;-75
2022/03/17 10:12:12;;;;;;;44.37;38.27;;;;;;;;;;5029720;28;20299;-74
2022/03/17 10:14:41;;;;;;;44.13;39.17;;;;;;;;;;5013572;28;20233;-74
2022/03/17 10:17:31;;;;;;;48.13;40.23;;;;;;;;;;4999370;28;20239;-74
2022/03/17 10:20:13;;;;;;;47.03;41.63;;;;;;;;;;4999849;28;20233;-74
2022/03/17 10:22:45;;;;;;;45.63;40.57;;;;;;;;;;5012048;28;20222;-73
2022/03/17 10:25:14;;;;;;;48.17;42.50;;;;;;;;;;5028670;28;20228;-73
2022/03/17 10:27:45;;;;;;;50.33;42.90;;;;;;;;;;4991938;28;20711;-73
2022/03/17 10:30:13;;;;;;;50.90;43.23;;;;;;;;;;4997765;28;20381;-74
2022/03/17 10:32:39;;;;;;;50.43;43.60;;;;;;;;;;5019740;28;20303;-74
2022/03/17 10:35:05;;;;;;;53.57;45.27;;;;;;;;;;5010987;28;20271;-73
2022/03/17 10:37:33;;;;;;;50.67;43.30;;;;;;;;;;5014050;28;20252;-74
2022/03/17 10:40:01;;;;;;;52.33;44.73;;;;;;;;;;4990835;28;20252;-75
2022/03/17 10:42:29;;;;;;;51.93;44.73;;;;;;;;;;4995195;28;20607;-75
2022/03/17 10:45:05;;;;;;;49.27;43.87;;;;;;;;;;5010647;28;20280;-73
2022/03/17 10:47:34;;;;;;;47.50;42.47;;;;;;;;;;5012481;28;20747;-74
2022/03/17 10:50:14;;;;;;;52.87;44.37;;;;;;;;;;4989040;28;20249;-74
2022/03/17 10:52:53;;;;;;;52.33;44.20;;;;;;;;;;5005619;28;20352;-73
2022/03/17 10:55:26;;;;;;;53.47;44.33;;;;;;;;;;4997756;28;20720;-73
2022/03/17 10:57:54;;;;;;;52.73;45.03;;;;;;;;;;5025359;28;20267;-74
2022/03/17 11:00:21;;;;;;;49.73;43.33;;;;;;;;;;4962648;28;20279;-74
2022/03/17 11:02:59;;;;;;;50.03;41.87;;;;;;;;;;4993139;28;20232;-74
2022/03/17 11:05:27;;;;;;;46.47;39.83;;;;;;;;;;4996068;28;20244;-74
2022/03/17 11:07:55;;;;;;;45.30;38.60;;;;;;;;;;4981512;28;20224;-74
2022/03/17 11:10:27;;;;;;;44.90;38.63;;;;;;;;;;5013511;28;20246;-73
2022/03/17 11:12:55;;;;;;;40.77;35.20;;;;;;;;;;5009888;28;20280;-73
2022/03/17 11:15:27;;;;;;;37.43;31.63;;;;;;;;;;5028707;28;20795;-73
2022/03/17 11:17:58;;;;;;;37.03;30.57;;;;;;;;;;4996328;28;20288;-74
2022/03/17 11:20:24;;;;;;;32.00;26.10;;;;;;;;;;4994933;28;20225;-73
2022/03/17 11:23:22;;;;;;;32.40;26.37;;;;;;;;;;5031144;28;20241;-73
2022/03/17 11:25:57;;;;;;;31.00;23.13;;;;;;;;;;5009614;28;20232;-74
2022/03/17 11:28:36;;;;;;;28.90;22.33;;;;;;;;;;5006999;28;20236;-73
2022/03/17 11:31:11;;;;;;;27.87;22.23;;;;;;;;;;5012154;28;20224;-73
2022/03/17 11:33:44;;;;;;;25.47;21.13;;;;;;;;;;5000728;28;20227;-74
2022/03/17 11:36:10;;;;;;;26.93;21.20;;;;;;;;;;5008558;28;20235;-73
2022/03/17 11:38:41;;;;;;;28.27;19.17;;;;;;;;;;5012821;28;20233;-74
2022/03/17 11:41:13;;;;;;;24.30;16.73;;;;;;;;;;5008041;28;20262;-76
2022/03/17 11:43:39;;;;;;;22.47;16.73;;;;;;;;;;5014770;28;20540;-73
2022/03/17 11:46:13;;;;;;;22.97;16.30;;;;;;;;;;5017402;28;20733;-73
2022/03/17 11:48:41;;;;;;;21.37;14.43;;;;;;;;;;4997417;28;20315;-73
2022/03/17 11:51:09;;;;;;;18.30;14.70;;;;;;;;;;5005388;28;20235;-73
2022/03/17 11:54:04;;;;;;;18.67;13.23;;;;;;;;;;5010974;28;20228;-73
2022/03/17 11:56:43;;;;;;;16.70;11.83;;;;;;;;;;4995091;28;20612;-75
2022/03/17 11:59:09;;;;;;;13.43;9.87;;;;;;;;;;5000338;28;20217;-74
2022/03/17 12:01:40;;;;;;;14.73;10.47;;;;;;;;;;4978563;28;20224;-75
2022/03/17 12:04:07;;;;;;;16.17;11.67;;;;;;;;;;4995085;28;20220;-75
2022/03/17 12:06:39;;;;;;;12.97;9.37;;;;;;;;;;5012446;28;20225;-74
2022/03/17 12:09:13;;;;;;;14.47;10.90;;;;;;;;;;5001888;28;20229;-73
2022/03/17 12:11:47;;;;;;;13.60;10.10;;;;;;;;;;4987973;28;20231;-73
2022/03/17 12:14:17;;;;;;;10.97;6.67;;;;;;;;;;4981477;28;20217;-73
2022/03/17 12:16:56;;;;;;;10.63;6.17;;;;;;;;;;5012078;28;20232;-73
2022/03/17 12:19:37;;;;;;;9.87;6.30;;;;;;;;;;5103193;27;20628;-74
2022/03/17 12:22:04;;;;;;;9.10;6.30;;;;;;;;;;5094288;27;20660;-74
2022/03/17 12:24:39;;;;;;;7.60;5.57;;;;;;;;;;5103783;28;20253;-74
2022/03/17 12:27:12;;;;;;;11.70;6.10;;;;;;;;;;5116411;28;20226;-73
2022/03/17 12:29:41;;;;;;;10.57;6.20;;;;;;;;;;5073505;27;20723;-73
2022/03/17 12:32:17;;;;;;;9.60;6.37;;;;;;;;;;5089374;28;20312;-73
2022/03/17 12:34:48;;;;;;;10.07;6.00;;;;;;;;;;5086962;28;20222;-75
2022/03/17 12:37:13;;;;;;;8.57;5.20;;;;;;;;;;5072658;28;20206;-74
2022/03/17 12:39:41;;;;;;;8.50;4.47;;;;;;;;;;5077012;28;20901;-74
2022/03/17 12:42:21;;;;;;;4.93;4.00;;;;;;;;;;5113217;28;20213;-73
2022/03/17 12:44:53;;;;;;;7.77;4.00;;;;;;;;;;5059589;28;20211;-73
2022/03/17 12:47:23;;;;;;;8.57;4.50;;;;;;;;;;5071640;27;20322;-74
2022/03/17 12:49:52;;;;;;;10.13;3.90;;;;;;;;;;5097723;28;20268;-75
2022/03/17 12:52:30;;;;;;;6.03;3.90;;;;;;;;;;5108958;27;20289;-74
2022/03/17 12:54:57;;;;;;;6.90;3.67;;;;;;;;;;5079404;28;20623;-74
2022/03/17 12:57:29;;;;;;;6.13;3.50;;;;;;;;;;5064545;27;20248;-73
2022/03/17 12:59:55;;;;;;;8.57;3.90;;;;;;;;;;5087361;28;20227;-75
2022/03/17 13:02:25;;;;;;;4.07;3.23;;;;;;;;;;5085271;28;20727;-74
2022/03/17 13:04:53;;;;;;;6.73;3.63;;;;;;;;;;5076358;28;20229;-75
2022/03/17 13:07:19;;;;;;;5.83;3.43;;;;;;;;;;5091004;28;20265;-74
2022/03/17 13:09:48;;;;;;;7.00;2.77;;;;;;;;;;5074878;28;20979;-73
2022/03/17 13:15:26;;;;;;;8.20;2.97;;;;;;;;;;5024948;28;20786;-74
2022/03/17 13:18:02;;;;;;;6.70;3.03;;;;;;;;;;5008961;28;20216;-74
2022/03/17 13:20:27;;;;;;;6.33;3.30;;;;;;;;;;5014037;28;20234;-74
2022/03/17 13:23:11;;;;;;;6.67;3.10;;;;;;;;;;5090658;28;20227;-74
2022/03/17 13:25:39;;;;;;;7.37;2.50;;;;;;;;;;5066260;28;20283;-72
2022/03/17 13:28:08;;;;;;;6.53;2.67;;;;;;;;;;5072106;27;20275;-73
2022/03/17 13:30:35;;;;;;;4.90;2.40;;;;;;;;;;5084741;28;20222;-74
2022/03/17 13:33:05;;;;;;;5.93;2.70;;;;;;;;;;5062928;28;20230;-74
2022/03/17 13:35:33;;;;;;;6.87;2.50;;;;;;;;;;5054700;28;20223;-74
2022/03/17 13:38:21;;;;;;;10.50;2.67;;;;;;;;;;5052236;28;20219;-74
2022/03/17 13:40:48;;;;;;;8.50;2.20;;;;;;;;;;5077981;28;20281;-74
2022/03/17 13:43:15;;;;;;;7.20;3.30;;;;;;;;;;5097553;28;20238;-74
2022/03/17 13:45:42;;;;;;;19.30;7.27;;;;;;;;;;5062183;28;20242;-73
2022/03/17 13:48:13;;;;;;;10.97;4.97;;;;;;;;;;5077256;28;20713;-74
2022/03/17 13:50:43;;;;;;;8.40;2.40;;;;;;;;;;5069599;28;20726;-73
2022/03/17 13:53:14;;;;;;;11.20;4.67;;;;;;;;;;5087264;28;20243;-74
2022/03/17 13:55:40;;;;;;;8.03;3.70;;;;;;;;;;5073479;28;20279;-74
2022/03/17 13:58:30;;;;;;;12.10;4.90;;;;;;;;;;5061167;28;20227;-72
2022/03/17 14:01:09;;;;;;;10.47;3.07;;;;;;;;;;5063999;28;20318;-74
2022/03/17 14:03:38;;;;;;;11.53;4.50;;;;;;;;;;5058104;28;20223;-74
2022/03/17 14:06:14;;;;;;;9.77;2.47;;;;;;;;;;5060332;28;20227;-73
2022/03/17 14:08:57;;;;;;;8.70;2.53;;;;;;;;;;5036231;28;20222;-75
2022/03/17 14:11:28;;;;;;;11.93;5.40;;;;;;;;;;5074211;28;20219;-75
2022/03/17 14:13:54;;;;;;;16.40;8.03;;;;;;;;;;5065633;28;20253;-75
2022/03/17 14:16:22;;;;;;;10.60;2.50;;;;;;;;;;5032342;28;20310;-74
2022/03/17 14:18:50;;;;;;;7.80;3.10;;;;;;;;;;5047046;28;20233;-76
2022/03/17 14:21:17;;;;;;;11.37;4.10;;;;;;;;;;5077251;28;20319;-75
2022/03/17 14:26:35;;;;;;;5.83;2.20;;;;;;;;;;5075280;28;20741;-76
2022/03/17 14:29:03;;;;;;;6.53;2.23;;;;;;;;;;5072136;28;20257;-73
2022/03/17 14:31:30;;;;;;;7.53;2.13;;;;;;;;;;5078419;28;20231;-74
2022/03/17 14:33:55;;;;;;;7.63;2.43;;;;;;;;;;5075149;28;20226;-73
2022/03/17 14:36:21;;;;;;;5.97;1.70;;;;;;;;;;5056484;28;20606;-75
2022/03/17 14:38:50;;;;;;;5.77;1.90;;;;;;;;;;5060045;28;20227;-74
2022/03/17 14:41:16;;;;;;;12.43;5.60;;;;;;;;;;5052635;28;20219;-74
2022/03/17 14:43:46;;;;;;;6.53;3.40;;;;;;;;;;5078476;28;20226;-74
2022/03/17 14:46:12;;;;;;;9.53;2.53;;;;;;;;;;5079058;28;20235;-74
2022/03/17 14:48:40;;;;;;;14.43;6.47;;;;;;;;;;5060987;28;20215;-73
2022/03/17 14:51:08;;;;;;;11.47;4.07;;;;;;;;;;5059725;28;20225;-77
2022/03/17 14:53:34;;;;;;;9.53;3.07;;;;;;;;;;5033431;28;20219;-75
2022/03/17 14:56:04;;;;;;;9.30;2.60;;;;;;;;;;5056242;28;20235;-73